Weather at Burnet Municipal Kate Craddock Field

Public forecast

Using degrees Fahrenheit for public forecast. Weather courtesy of forecast.io.

Current aviation weather report (METAR) for Burnet Municipal Kate Craddock Field

Retrieved 2022/01/25 05:30 UTC (6 minutes ago):

KBMQ 250530Z AUTO VRB03KT 8SM OVC003 09/08 A2994 RMK AO2 T00890083

Closest aviation forecast (TAF) to Burnet Municipal Kate Craddock Field

Closest forecast is Killeen-Fort Hood Regional Airport / Robert Gray Army Air Field, 28.9 nm (53.5 km) NE. Retrieved 2022-01-25 03:36 UTC (2 hours ago):

TAF KGRK 250300Z 2503/2606 VRB06KT 8000 BR SCT001 OVC100 QNH2983INS TEMPO 2503/2507 0800 FG OVC001 BECMG 2507/2508 VRB06KT 0800 FG FEW015 QNH2993INS BECMG 2514/2515 VRB06KT 8000 BR OVC010 QNH2997INS BECMG 2523/2524 06006KT 9999 NSW OVC030 QNH3019INS BECMG 2604/2605 06006KT 9999 SCT030 BKN040 QNH3022INS TX11/2503Z TN05/2511Z